createdAt,value
2022-09-06T00:01:39.998Z,10.23
2022-09-06T00:04:26.055Z,13.10
2022-09-06T00:07:12.212Z,6.43
2022-09-06T00:09:58.268Z,6.88
2022-09-06T00:12:44.363Z,10.65
2022-09-06T00:15:30.693Z,4.28
2022-09-06T00:18:16.570Z,7.80
2022-09-06T00:21:03.485Z,8.40
2022-09-06T00:23:50.060Z,8.63
2022-09-06T00:26:35.987Z,11.05
2022-09-06T00:29:21.920Z,8.25
2022-09-06T00:32:08.536Z,9.00
2022-09-06T00:34:54.468Z,10.07
2022-09-06T00:37:40.196Z,5.88
2022-09-06T00:40:29.533Z,8.32
2022-09-06T00:43:15.599Z,5.40
2022-09-06T00:46:03.626Z,4.63
2022-09-06T00:48:53.867Z,8.52
2022-09-06T00:51:39.832Z,7.10
2022-09-06T00:54:26.290Z,7.15
2022-09-06T00:57:12.563Z,10.48
2022-09-06T00:59:59.097Z,8.82
2022-09-06T01:02:45.378Z,5.47
2022-09-06T01:06:06.643Z,9.35
2022-09-06T01:09:22.874Z,6.43
2022-09-06T01:12:14.585Z,6.40
2022-09-06T01:15:17.894Z,8.48
2022-09-06T01:18:30.300Z,6.13
2022-09-06T01:21:38.846Z,5.70
2022-09-06T01:24:51.383Z,10.18
2022-09-06T01:27:52.781Z,6.53
2022-09-06T01:30:44.474Z,6.82
2022-09-06T01:34:03.864Z,8.52
2022-09-06T01:37:08.472Z,6.45
2022-09-06T01:39:56.358Z,7.18
2022-09-06T01:42:45.174Z,4.72
2022-09-06T01:45:49.277Z,6.35
2022-09-06T01:48:45.222Z,5.70
2022-09-06T01:51:56.079Z,7.78
2022-09-06T01:54:50.957Z,6.07
2022-09-06T01:57:39.790Z,7.32
2022-09-06T02:00:25.800Z,8.60
2022-09-06T02:03:25.695Z,7.97
2022-09-06T02:06:18.726Z,7.05
2022-09-06T02:09:11.740Z,6.07
2022-09-06T02:12:00.318Z,3.33
2022-09-06T02:14:59.973Z,9.20
2022-09-06T02:18:10.077Z,7.13
2022-09-06T02:21:01.720Z,5.03
2022-09-06T02:23:47.872Z,3.45
2022-09-06T02:26:38.140Z,4.28
2022-09-06T02:29:24.133Z,10.30
2022-09-06T02:32:22.312Z,4.22
2022-09-06T02:35:13.514Z,7.57
2022-09-06T02:37:59.435Z,7.00
2022-09-06T02:40:46.305Z,4.57
2022-09-06T02:43:32.173Z,7.93
2022-09-06T02:46:18.028Z,6.15
2022-09-06T02:49:04.305Z,4.70
2022-09-06T02:51:50.944Z,8.43
2022-09-06T02:54:36.916Z,9.63
2022-09-06T02:57:23.210Z,6.68
2022-09-06T03:00:09.913Z,4.13
2022-09-06T03:02:56.494Z,8.38
2022-09-06T03:05:43.087Z,7.63
2022-09-06T03:08:34.263Z,7.57
2022-09-06T03:11:20.259Z,14.25
2022-09-06T03:14:06.205Z,12.98
2022-09-06T03:16:52.357Z,5.45
2022-09-06T03:19:38.209Z,5.32
2022-09-06T03:22:24.340Z,3.95
2022-09-06T03:25:10.915Z,6.78
2022-09-06T03:27:56.638Z,7.15
2022-09-06T03:30:45.152Z,4.60
2022-09-06T03:33:31.177Z,5.70
2022-09-06T03:36:17.575Z,3.60
2022-09-06T03:39:03.714Z,4.28
2022-09-06T03:41:49.925Z,7.32
2022-09-06T03:44:39.967Z,7.82
2022-09-06T03:47:25.961Z,6.90
2022-09-06T03:50:14.168Z,7.15
2022-09-06T03:53:00.179Z,9.20
2022-09-06T03:55:51.128Z,7.55
2022-09-06T03:58:36.950Z,8.57
2022-09-06T04:01:23.071Z,14.15
2022-09-06T04:04:09.112Z,8.43
2022-09-06T04:07:13.107Z,7.68
2022-09-06T04:09:58.932Z,5.70
2022-09-06T04:12:45.506Z,20.33
2022-09-06T04:15:31.330Z,15.57
2022-09-06T04:18:18.152Z,9.45
2022-09-06T04:21:07.269Z,74.47
2022-09-06T04:23:53.912Z,26.40
2022-09-06T04:26:39.902Z,22.77
2022-09-06T04:29:26.048Z,20.38
2022-09-06T04:32:11.822Z,19.30
2022-09-06T04:34:57.729Z,34.72
2022-09-06T04:37:43.620Z,15.25
2022-09-06T04:40:32.126Z,15.50
2022-09-06T04:43:23.061Z,11.02
2022-09-06T04:46:25.326Z,11.27
2022-09-06T04:49:11.788Z,6.38
2022-09-06T04:51:58.259Z,9.48
2022-09-06T04:54:44.217Z,10.52
2022-09-06T04:57:30.665Z,8.52
2022-09-06T05:00:19.457Z,11.63
2022-09-06T05:03:06.298Z,7.13
2022-09-06T05:05:53.281Z,10.48
2022-09-06T05:08:41.087Z,9.43
2022-09-06T05:11:27.456Z,7.35
2022-09-06T05:14:13.293Z,16.48
2022-09-06T05:16:59.239Z,8.73
2022-09-06T05:19:45.289Z,10.75
2022-09-06T05:22:31.153Z,5.43
2022-09-06T05:25:17.102Z,13.77
2022-09-06T05:28:03.263Z,12.93
2022-09-06T05:31:11.934Z,11.55
2022-09-06T05:34:10.634Z,14.50
2022-09-06T05:36:56.631Z,18.30
2022-09-06T05:39:42.494Z,16.60
2022-09-06T05:42:28.577Z,10.02
2022-09-06T05:45:14.494Z,11.50
2022-09-06T05:48:00.555Z,15.20
2022-09-06T05:50:46.401Z,7.57
2022-09-06T05:53:36.901Z,9.77
2022-09-06T05:56:23.288Z,5.60
2022-09-06T05:59:09.511Z,10.48
2022-09-06T06:01:55.702Z,8.10
2022-09-06T06:04:41.820Z,8.30
2022-09-06T06:07:27.638Z,7.72
2022-09-06T06:10:13.468Z,5.68
2022-09-06T06:12:59.399Z,7.57
2022-09-06T06:15:45.027Z,9.10
2022-09-06T06:18:30.813Z,7.88
2022-09-06T06:21:20.434Z,5.95
2022-09-06T06:24:07.054Z,9.93
2022-09-06T06:26:52.769Z,9.48
2022-09-06T06:29:38.558Z,6.68
2022-09-06T06:32:24.209Z,12.63
2022-09-06T06:35:10.359Z,11.77
2022-09-06T06:37:57.076Z,15.48
2022-09-06T06:40:45.990Z,7.72
2022-09-06T06:43:36.401Z,16.73
2022-09-06T06:46:24.158Z,12.63
2022-09-06T06:49:09.924Z,16.17
2022-09-06T06:51:55.806Z,19.58
2022-09-06T06:54:41.838Z,24.55
2022-09-06T06:57:27.657Z,10.65
2022-09-06T07:00:13.876Z,8.52
2022-09-06T07:03:00.141Z,10.40
2022-09-06T07:08:54.391Z,13.80
2022-09-06T07:11:40.349Z,9.80
2022-09-06T07:14:26.318Z,9.27
2022-09-06T07:17:12.443Z,9.30
2022-09-06T07:20:14.509Z,9.88
2022-09-06T07:26:21.422Z,8.13
2022-09-06T07:29:07.853Z,17.05
2022-09-06T07:32:13.004Z,11.70
2022-09-06T07:34:58.818Z,10.38
2022-09-06T07:37:52.089Z,19.15
2022-09-06T07:40:38.144Z,13.52
2022-09-06T07:43:25.496Z,11.73
2022-09-06T07:46:15.670Z,13.10
2022-09-06T07:49:04.301Z,22.88
2022-09-06T07:51:50.251Z,14.15
2022-09-06T07:54:35.918Z,24.73
2022-09-06T07:57:21.740Z,13.13
2022-09-06T08:00:08.298Z,17.92
2022-09-06T08:02:57.372Z,18.00
2022-09-06T08:08:57.560Z,18.23
2022-09-06T08:11:43.921Z,16.70
2022-09-06T08:14:29.878Z,8.60
2022-09-06T08:17:15.706Z,6.75
2022-09-06T08:20:05.006Z,9.02
2022-09-06T08:22:50.922Z,20.42
2022-09-06T08:25:36.731Z,19.73
2022-09-06T08:28:25.583Z,13.57
2022-09-06T08:31:16.908Z,9.43
2022-09-06T08:34:03.092Z,12.27
2022-09-06T08:36:48.743Z,13.50
2022-09-06T08:39:34.918Z,11.88
2022-09-06T08:42:20.838Z,13.05
2022-09-06T08:45:12.518Z,8.75
2022-09-06T08:47:58.522Z,13.23
2022-09-06T08:51:12.507Z,59.90
2022-09-06T08:54:06.721Z,12.43
2022-09-06T08:57:11.406Z,20.80
2022-09-06T09:00:03.495Z,16.13
2022-09-06T09:02:53.860Z,11.52
2022-09-06T09:05:41.057Z,17.83
2022-09-06T09:08:29.701Z,16.25
2022-09-06T09:11:18.783Z,14.40
2022-09-06T09:14:13.582Z,14.77
2022-09-06T09:17:06.720Z,10.50
2022-09-06T09:19:56.158Z,13.45
2022-09-06T09:22:42.734Z,12.32
2022-09-06T09:25:33.030Z,11.25
2022-09-06T09:28:24.907Z,13.20
2022-09-06T09:31:10.992Z,13.23
2022-09-06T09:33:57.252Z,14.85
2022-09-06T09:39:51.588Z,8.43
2022-09-06T09:42:37.986Z,13.90
2022-09-06T09:45:29.466Z,14.38
2022-09-06T09:48:29.615Z,12.02
2022-09-06T09:51:27.689Z,11.93
2022-09-06T09:54:15.773Z,17.05
2022-09-06T09:57:02.094Z,12.70
2022-09-06T09:59:54.380Z,11.88
2022-09-06T10:02:42.047Z,8.73
2022-09-06T10:05:28.095Z,17.88
2022-09-06T10:08:14.375Z,10.38
2022-09-06T10:11:01.041Z,18.52
2022-09-06T10:13:46.829Z,19.65
2022-09-06T10:16:44.895Z,14.68
2022-09-06T10:19:40.980Z,10.18
2022-09-06T10:22:31.930Z,14.23
2022-09-06T10:25:38.423Z,15.82
2022-09-06T10:28:31.507Z,9.80
2022-09-06T10:32:07.161Z,5.72
2022-09-06T10:35:19.911Z,9.93
2022-09-06T10:42:54.668Z,13.10
2022-09-06T10:50:25.268Z,10.18
2022-09-06T10:53:27.510Z,10.50
2022-09-06T10:56:23.314Z,13.77
2022-09-06T11:02:44.231Z,11.80
2022-09-06T11:06:04.335Z,12.85
2022-09-06T11:09:03.227Z,9.07
2022-09-06T11:11:53.724Z,9.90
2022-09-06T11:14:40.825Z,7.57
2022-09-06T11:17:52.862Z,10.52
2022-09-06T11:20:47.076Z,5.40
2022-09-06T11:23:43.021Z,7.43
2022-09-06T11:26:34.708Z,7.80
2022-09-06T11:29:25.198Z,8.50
2022-09-06T11:32:29.745Z,8.48
2022-09-06T11:35:41.825Z,4.97
2022-09-06T11:38:28.842Z,9.43
2022-09-06T11:41:16.718Z,5.25
2022-09-06T11:44:04.217Z,4.95
2022-09-06T11:46:49.904Z,12.32
2022-09-06T11:49:37.553Z,11.60
2022-09-06T11:53:01.030Z,5.95
2022-09-06T11:55:52.539Z,6.50
2022-09-06T11:59:02.132Z,5.45
2022-09-06T12:02:02.785Z,8.63
2022-09-06T12:05:01.037Z,6.57
2022-09-06T12:08:14.965Z,9.32
2022-09-06T12:14:03.548Z,7.13
2022-09-06T12:16:59.142Z,7.53
2022-09-06T12:19:53.318Z,10.40
2022-09-06T12:22:40.470Z,6.68
2022-09-06T12:25:38.759Z,4.53
2022-09-06T12:28:47.573Z,8.13
2022-09-06T12:31:42.910Z,6.75
2022-09-06T12:34:34.656Z,6.25
2022-09-06T12:37:32.616Z,8.07
2022-09-06T12:40:20.195Z,7.90
2022-09-06T12:43:10.016Z,7.03
2022-09-06T12:45:56.268Z,4.70
2022-09-06T12:48:44.550Z,6.13
2022-09-06T12:51:30.415Z,7.15
2022-09-06T12:54:26.343Z,8.02
2022-09-06T12:57:23.937Z,11.43
2022-09-06T13:00:10.222Z,10.23
2022-09-06T13:03:21.541Z,6.28
2022-09-06T13:06:07.967Z,11.05
2022-09-06T13:08:57.053Z,8.63
2022-09-06T13:11:45.349Z,13.20
2022-09-06T13:14:32.609Z,7.90
2022-09-06T13:17:27.345Z,9.57
2022-09-06T13:20:23.957Z,6.70
2022-09-06T13:23:13.229Z,4.90
2022-09-06T13:25:59.296Z,5.18
2022-09-06T13:28:45.044Z,7.35
2022-09-06T13:31:31.826Z,5.53
2022-09-06T13:34:29.052Z,5.88
2022-09-06T13:37:15.098Z,9.25
2022-09-06T13:40:05.163Z,5.30
2022-09-06T13:43:00.520Z,16.95
2022-09-06T13:45:47.255Z,8.90
2022-09-06T13:48:33.929Z,6.55
2022-09-06T13:51:19.916Z,6.22
2022-09-06T13:54:11.872Z,12.57
2022-09-06T13:56:57.969Z,8.27
2022-09-06T13:59:44.057Z,7.13
2022-09-06T14:02:30.320Z,7.78
2022-09-06T14:05:16.796Z,10.50
2022-09-06T14:08:02.916Z,7.20
2022-09-06T14:10:49.698Z,7.03
2022-09-06T14:13:35.684Z,4.70
2022-09-06T14:16:21.986Z,6.05
2022-09-06T14:19:08.010Z,7.85
2022-09-06T14:21:54.062Z,9.48
2022-09-06T14:24:39.924Z,9.65
2022-09-06T14:27:25.674Z,10.10
2022-09-06T14:30:12.077Z,11.90
2022-09-06T14:32:58.151Z,17.67
2022-09-06T14:35:44.290Z,9.13
2022-09-06T14:38:30.332Z,10.70
2022-09-06T14:41:18.053Z,8.40
2022-09-06T14:44:04.367Z,11.10
2022-09-06T14:46:53.518Z,14.73
2022-09-06T14:49:39.305Z,10.32
2022-09-06T14:52:25.597Z,13.02
2022-09-06T14:55:12.679Z,10.63
2022-09-06T14:57:59.457Z,10.50
2022-09-06T15:00:46.670Z,6.60
2022-09-06T15:03:32.405Z,7.78
2022-09-06T15:06:20.344Z,8.75
2022-09-06T15:09:07.650Z,10.52
2022-09-06T15:11:54.103Z,7.78
2022-09-06T15:14:41.223Z,9.63
2022-09-06T15:17:27.241Z,6.60
2022-09-06T15:20:12.986Z,5.63
2022-09-06T15:23:15.145Z,14.30
2022-09-06T15:26:08.339Z,7.72
2022-09-06T15:28:54.694Z,8.13
2022-09-06T15:31:42.156Z,5.07
2022-09-06T15:34:28.251Z,10.52
2022-09-06T15:37:14.359Z,7.15
2022-09-06T15:40:00.328Z,10.23
2022-09-06T15:42:46.421Z,8.63
2022-09-06T15:45:47.259Z,10.38
2022-09-06T15:48:48.337Z,11.77
2022-09-06T15:51:35.870Z,16.38
2022-09-06T15:54:41.667Z,7.97
2022-09-06T15:57:28.965Z,21.52
2022-09-06T16:00:17.225Z,14.70
2022-09-06T16:03:03.464Z,13.25
2022-09-06T16:09:04.257Z,10.23
2022-09-06T16:11:50.011Z,14.18
2022-09-06T16:14:35.875Z,14.38
2022-09-06T16:17:22.393Z,24.48
2022-09-06T16:20:08.537Z,11.50
2022-09-06T16:22:54.369Z,20.98
2022-09-06T16:25:40.535Z,13.25
2022-09-06T16:28:29.033Z,18.40
2022-09-06T16:31:15.234Z,18.48
2022-09-06T16:34:01.459Z,16.50
2022-09-06T16:36:50.193Z,17.52
2022-09-06T16:39:37.245Z,13.60
2022-09-06T16:42:24.569Z,14.15
2022-09-06T16:45:12.067Z,16.00
2022-09-06T16:48:00.732Z,15.32
2022-09-06T16:50:46.976Z,23.92
2022-09-06T16:53:32.950Z,32.03
2022-09-06T16:56:21.447Z,16.88
2022-09-06T16:59:08.945Z,20.88
2022-09-06T17:01:56.187Z,24.70
2022-09-06T17:04:42.879Z,33.85
2022-09-06T17:07:28.753Z,22.48
2022-09-06T17:10:14.482Z,16.20
2022-09-06T17:13:00.559Z,15.43
2022-09-06T17:16:12.818Z,12.13
2022-09-06T17:18:59.976Z,18.17
2022-09-06T17:21:46.458Z,18.05
2022-09-06T17:24:32.616Z,26.00
2022-09-06T17:27:18.868Z,19.75
2022-09-06T17:30:05.293Z,21.95
2022-09-06T17:32:51.263Z,14.00
2022-09-06T17:35:37.677Z,13.73
2022-09-06T17:38:24.093Z,14.02
2022-09-06T17:41:24.243Z,32.75
2022-09-06T17:44:11.206Z,27.30
2022-09-06T17:47:12.067Z,45.38
2022-09-06T17:49:59.120Z,23.85
2022-09-06T17:52:46.001Z,29.38
2022-09-06T17:55:32.555Z,21.33
2022-09-06T17:58:20.031Z,27.00
2022-09-06T18:01:08.575Z,63.65
2022-09-06T18:03:54.696Z,43.50
2022-09-06T18:06:43.230Z,76.53
2022-09-06T18:09:29.434Z,142.95
2022-09-06T18:12:15.135Z,62.97
2022-09-06T18:15:02.365Z,57.88
2022-09-06T18:17:49.024Z,33.53
2022-09-06T18:20:36.100Z,24.70
2022-09-06T18:23:22.453Z,37.10
2022-09-06T18:26:08.735Z,30.00
2022-09-06T18:28:54.865Z,23.83
2022-09-06T18:31:41.624Z,31.30
2022-09-06T18:34:27.931Z,20.27
2022-09-06T18:37:14.605Z,30.13
2022-09-06T18:40:00.655Z,46.20
2022-09-06T18:42:47.202Z,18.30
2022-09-06T18:45:35.834Z,21.45
2022-09-06T18:48:21.719Z,22.25
2022-09-06T18:51:11.833Z,21.65
2022-09-06T18:53:59.712Z,24.45
2022-09-06T18:56:45.753Z,23.10
2022-09-06T18:59:31.672Z,20.02
2022-09-06T19:02:17.686Z,25.95
2022-09-06T19:05:03.826Z,12.70
2022-09-06T19:07:49.839Z,22.00
2022-09-06T19:10:35.914Z,26.35
2022-09-06T19:13:21.966Z,18.30
2022-09-06T19:16:09.672Z,29.17
2022-09-06T19:18:57.085Z,23.17
2022-09-06T19:21:43.181Z,24.40
2022-09-06T19:24:29.150Z,21.45
2022-09-06T19:27:15.344Z,20.23
2022-09-06T19:30:01.566Z,21.65
2022-09-06T19:32:47.935Z,25.98
2022-09-06T19:35:43.731Z,29.00
2022-09-06T19:39:02.109Z,19.40
2022-09-06T19:41:50.592Z,29.77
2022-09-06T19:44:37.051Z,18.00
2022-09-06T19:47:23.265Z,17.92
2022-09-06T19:50:09.250Z,24.58
2022-09-06T19:52:56.382Z,15.70
2022-09-06T19:55:42.391Z,20.80
2022-09-06T19:58:29.321Z,21.17
2022-09-06T20:01:18.118Z,30.83
2022-09-06T20:04:07.495Z,21.25
2022-09-06T20:06:53.607Z,15.38
2022-09-06T20:09:40.152Z,22.45
2022-09-06T20:12:25.911Z,19.58
2022-09-06T20:15:11.884Z,25.40
2022-09-06T20:17:57.974Z,34.45
2022-09-06T20:20:44.885Z,22.60
2022-09-06T20:23:32.456Z,22.02
2022-09-06T20:26:19.696Z,16.77
2022-09-06T20:29:06.581Z,19.83
2022-09-06T20:31:52.877Z,11.93
2022-09-06T20:34:38.654Z,11.68
2022-09-06T20:37:24.663Z,11.18
2022-09-06T20:40:11.415Z,16.80
2022-09-06T20:42:57.684Z,17.60
2022-09-06T20:45:45.914Z,22.65
2022-09-06T20:48:32.845Z,16.00
2022-09-06T20:51:21.219Z,28.33
2022-09-06T20:54:07.370Z,24.88
2022-09-06T20:56:54.181Z,24.95
2022-09-06T20:59:40.004Z,20.23
2022-09-06T21:02:26.043Z,23.42
2022-09-06T21:05:11.879Z,27.25
2022-09-06T21:07:58.071Z,16.52
2022-09-06T21:10:44.397Z,19.92
2022-09-06T21:13:30.667Z,13.82
2022-09-06T21:16:21.820Z,21.63
2022-09-06T21:21:57.083Z,20.92
2022-09-06T21:24:42.927Z,16.13
2022-09-06T21:27:29.015Z,17.80
2022-09-06T21:30:14.828Z,16.80
2022-09-06T21:33:01.016Z,16.15
2022-09-06T21:35:46.833Z,18.50
2022-09-06T21:38:38.451Z,15.30
2022-09-06T21:41:24.982Z,20.73
2022-09-06T21:44:11.388Z,15.27
2022-09-06T21:46:58.054Z,14.77
2022-09-06T21:49:44.032Z,17.83
2022-09-06T21:52:32.476Z,17.85
2022-09-06T21:55:18.361Z,17.02
2022-09-06T21:58:04.173Z,20.83
2022-09-06T22:00:54.024Z,10.82
2022-09-06T22:03:40.405Z,14.55
2022-09-06T22:06:31.232Z,18.33
2022-09-06T22:09:17.339Z,19.33
2022-09-06T22:12:04.058Z,11.98
2022-09-06T22:14:50.038Z,14.38
2022-09-06T22:17:36.159Z,16.38
2022-09-06T22:20:23.080Z,12.95
2022-09-06T22:23:09.994Z,12.02
2022-09-06T22:26:07.706Z,11.48
2022-09-06T22:29:01.331Z,13.52
2022-09-06T22:31:47.680Z,17.35
2022-09-06T22:34:34.118Z,12.13
2022-09-06T22:37:20.276Z,15.15
2022-09-06T22:40:06.905Z,17.40
2022-09-06T22:42:53.415Z,15.63
2022-09-06T22:45:39.423Z,14.02
2022-09-06T22:48:25.496Z,16.25
2022-09-06T22:51:11.762Z,12.32
2022-09-06T22:53:57.604Z,21.52
2022-09-06T22:56:43.680Z,19.55
2022-09-06T22:59:30.325Z,19.52
2022-09-06T23:02:16.402Z,12.52
2022-09-06T23:05:02.191Z,9.23
2022-09-06T23:07:49.689Z,12.90
2022-09-06T23:10:41.725Z,10.60
2022-09-06T23:13:27.789Z,9.45
2022-09-06T23:16:17.205Z,12.88
2022-09-06T23:19:03.469Z,13.65
2022-09-06T23:21:49.396Z,13.13
2022-09-06T23:24:35.428Z,14.98
2022-09-06T23:27:22.110Z,12.43
2022-09-06T23:30:08.812Z,8.98
2022-09-06T23:32:56.598Z,8.45
2022-09-06T23:35:43.716Z,14.82
2022-09-06T23:38:29.932Z,14.32
2022-09-06T23:41:16.273Z,12.55
2022-09-06T23:44:02.542Z,8.02
2022-09-06T23:46:48.469Z,11.50
2022-09-06T23:49:34.311Z,9.88
2022-09-06T23:52:20.142Z,16.27
2022-09-06T23:55:06.430Z,9.40
2022-09-06T23:57:52.600Z,7.47
